sensor_id;sensor_type;location;lat;lon;timestamp;P1;durP1;ratioP1;P2;durP2;ratioP2
49860;SDS011;35761;48.826;9.238;2022-12-17T00:01:05;28.45;;;13.38;;
49860;SDS011;35761;48.826;9.238;2022-12-17T00:04:00;28.15;;;14.68;;
49860;SDS011;35761;48.826;9.238;2022-12-17T00:06:46;31.05;;;13.63;;
49860;SDS011;35761;48.826;9.238;2022-12-17T00:09:32;28.73;;;14.43;;
49860;SDS011;35761;48.826;9.238;2022-12-17T00:12:21;35.75;;;16.77;;
49860;SDS011;35761;48.826;9.238;2022-12-17T00:15:09;38.70;;;17.42;;
49860;SDS011;35761;48.826;9.238;2022-12-17T00:18:01;30.20;;;14.70;;
49860;SDS011;35761;48.826;9.238;2022-12-17T00:20:51;31.98;;;16.05;;
49860;SDS011;35761;48.826;9.238;2022-12-17T00:23:38;28.63;;;15.25;;
49860;SDS011;35761;48.826;9.238;2022-12-17T00:26:24;35.92;;;17.08;;
49860;SDS011;35761;48.826;9.238;2022-12-17T00:29:10;29.98;;;15.70;;
49860;SDS011;35761;48.826;9.238;2022-12-17T00:31:58;30.30;;;15.27;;
49860;SDS011;35761;48.826;9.238;2022-12-17T00:34:55;32.15;;;15.05;;
49860;SDS011;35761;48.826;9.238;2022-12-17T00:37:44;32.70;;;15.18;;
49860;SDS011;35761;48.826;9.238;2022-12-17T00:40:31;33.33;;;14.40;;
49860;SDS011;35761;48.826;9.238;2022-12-17T00:43:17;31.77;;;15.02;;
49860;SDS011;35761;48.826;9.238;2022-12-17T00:46:05;30.67;;;15.15;;
49860;SDS011;35761;48.826;9.238;2022-12-17T00:48:52;29.80;;;15.13;;
49860;SDS011;35761;48.826;9.238;2022-12-17T00:51:38;27.98;;;13.27;;
49860;SDS011;35761;48.826;9.238;2022-12-17T00:54:30;30.55;;;14.30;;
49860;SDS011;35761;48.826;9.238;2022-12-17T00:57:15;31.80;;;15.00;;
49860;SDS011;35761;48.826;9.238;2022-12-17T01:00:02;34.55;;;15.40;;
49860;SDS011;35761;48.826;9.238;2022-12-17T01:03:02;28.38;;;14.38;;
49860;SDS011;35761;48.826;9.238;2022-12-17T01:05:50;29.33;;;14.30;;
49860;SDS011;35761;48.826;9.238;2022-12-17T01:08:37;24.58;;;13.82;;
49860;SDS011;35761;48.826;9.238;2022-12-17T01:11:24;29.63;;;13.63;;
49860;SDS011;35761;48.826;9.238;2022-12-17T01:14:10;27.90;;;14.15;;
49860;SDS011;35761;48.826;9.238;2022-12-17T01:16:56;29.55;;;14.48;;
49860;SDS011;35761;48.826;9.238;2022-12-17T01:19:42;28.88;;;14.35;;
49860;SDS011;35761;48.826;9.238;2022-12-17T01:22:30;27.27;;;14.15;;
49860;SDS011;35761;48.826;9.238;2022-12-17T01:25:16;30.70;;;13.95;;
49860;SDS011;35761;48.826;9.238;2022-12-17T01:28:02;27.92;;;13.32;;
49860;SDS011;35761;48.826;9.238;2022-12-17T01:30:49;29.35;;;14.95;;
49860;SDS011;35761;48.826;9.238;2022-12-17T01:33:32;31.70;;;14.05;;
49860;SDS011;35761;48.826;9.238;2022-12-17T01:36:18;31.00;;;14.48;;
49860;SDS011;35761;48.826;9.238;2022-12-17T01:39:18;29.13;;;14.25;;
49860;SDS011;35761;48.826;9.238;2022-12-17T01:42:04;26.85;;;14.27;;
49860;SDS011;35761;48.826;9.238;2022-12-17T01:44:52;28.50;;;14.45;;
49860;SDS011;35761;48.826;9.238;2022-12-17T01:47:41;34.13;;;14.60;;
49860;SDS011;35761;48.826;9.238;2022-12-17T01:50:31;34.05;;;14.73;;
49860;SDS011;35761;48.826;9.238;2022-12-17T01:53:20;26.73;;;14.43;;
49860;SDS011;35761;48.826;9.238;2022-12-17T01:56:25;31.75;;;15.40;;
49860;SDS011;35761;48.826;9.238;2022-12-17T01:59:11;30.45;;;14.00;;
49860;SDS011;35761;48.826;9.238;2022-12-17T02:01:58;28.35;;;13.95;;
49860;SDS011;35761;48.826;9.238;2022-12-17T02:04:45;26.15;;;13.35;;
49860;SDS011;35761;48.826;9.238;2022-12-17T02:07:41;30.88;;;13.25;;
49860;SDS011;35761;48.826;9.238;2022-12-17T02:10:40;28.92;;;14.02;;
49860;SDS011;35761;48.826;9.238;2022-12-17T02:13:33;26.52;;;13.90;;
49860;SDS011;35761;48.826;9.238;2022-12-17T02:16:33;27.38;;;13.32;;
49860;SDS011;35761;48.826;9.238;2022-12-17T02:19:24;31.30;;;14.15;;
49860;SDS011;35761;48.826;9.238;2022-12-17T02:22:18;26.52;;;14.52;;
49860;SDS011;35761;48.826;9.238;2022-12-17T02:25:11;23.48;;;12.93;;
49860;SDS011;35761;48.826;9.238;2022-12-17T02:28:04;27.63;;;13.32;;
49860;SDS011;35761;48.826;9.238;2022-12-17T02:30:50;30.45;;;14.40;;
49860;SDS011;35761;48.826;9.238;2022-12-17T02:33:37;27.42;;;14.02;;
49860;SDS011;35761;48.826;9.238;2022-12-17T02:36:24;29.08;;;14.52;;
49860;SDS011;35761;48.826;9.238;2022-12-17T02:39:10;29.95;;;14.77;;
49860;SDS011;35761;48.826;9.238;2022-12-17T02:41:57;23.63;;;13.13;;
49860;SDS011;35761;48.826;9.238;2022-12-17T02:44:45;30.45;;;14.70;;
49860;SDS011;35761;48.826;9.238;2022-12-17T02:47:31;32.63;;;14.82;;
49860;SDS011;35761;48.826;9.238;2022-12-17T02:50:17;31.05;;;14.75;;
49860;SDS011;35761;48.826;9.238;2022-12-17T02:53:04;29.08;;;15.18;;
49860;SDS011;35761;48.826;9.238;2022-12-17T02:55:50;38.13;;;15.88;;
49860;SDS011;35761;48.826;9.238;2022-12-17T02:58:37;34.25;;;15.50;;
49860;SDS011;35761;48.826;9.238;2022-12-17T03:01:25;37.38;;;15.88;;
49860;SDS011;35761;48.826;9.238;2022-12-17T03:04:11;32.47;;;16.17;;
49860;SDS011;35761;48.826;9.238;2022-12-17T03:06:57;34.40;;;16.10;;
49860;SDS011;35761;48.826;9.238;2022-12-17T03:09:44;33.15;;;15.98;;
49860;SDS011;35761;48.826;9.238;2022-12-17T03:12:31;34.65;;;16.75;;
49860;SDS011;35761;48.826;9.238;2022-12-17T03:15:17;32.30;;;15.13;;
49860;SDS011;35761;48.826;9.238;2022-12-17T03:18:08;32.35;;;15.70;;
49860;SDS011;35761;48.826;9.238;2022-12-17T03:20:54;31.35;;;15.55;;
49860;SDS011;35761;48.826;9.238;2022-12-17T03:23:40;29.40;;;14.45;;
49860;SDS011;35761;48.826;9.238;2022-12-17T03:29:26;32.72;;;15.45;;
49860;SDS011;35761;48.826;9.238;2022-12-17T03:32:12;28.65;;;15.63;;
49860;SDS011;35761;48.826;9.238;2022-12-17T03:35:00;35.20;;;15.80;;
49860;SDS011;35761;48.826;9.238;2022-12-17T03:37:46;36.17;;;14.73;;
49860;SDS011;35761;48.826;9.238;2022-12-17T03:40:32;37.58;;;16.00;;
49860;SDS011;35761;48.826;9.238;2022-12-17T03:43:19;29.92;;;14.85;;
49860;SDS011;35761;48.826;9.238;2022-12-17T03:46:06;26.02;;;14.38;;
49860;SDS011;35761;48.826;9.238;2022-12-17T03:48:52;30.85;;;15.60;;
49860;SDS011;35761;48.826;9.238;2022-12-17T03:51:40;26.65;;;14.73;;
49860;SDS011;35761;48.826;9.238;2022-12-17T03:54:26;34.17;;;16.83;;
49860;SDS011;35761;48.826;9.238;2022-12-17T03:57:12;31.15;;;15.05;;
49860;SDS011;35761;48.826;9.238;2022-12-17T03:59:59;31.95;;;15.82;;
49860;SDS011;35761;48.826;9.238;2022-12-17T04:02:45;26.88;;;14.02;;
49860;SDS011;35761;48.826;9.238;2022-12-17T04:05:31;29.90;;;14.80;;
49860;SDS011;35761;48.826;9.238;2022-12-17T04:08:18;35.25;;;16.35;;
49860;SDS011;35761;48.826;9.238;2022-12-17T04:11:04;35.67;;;17.42;;
49860;SDS011;35761;48.826;9.238;2022-12-17T04:13:51;35.78;;;15.57;;
49860;SDS011;35761;48.826;9.238;2022-12-17T04:16:37;33.25;;;16.85;;
49860;SDS011;35761;48.826;9.238;2022-12-17T04:19:24;41.70;;;17.17;;
49860;SDS011;35761;48.826;9.238;2022-12-17T04:22:12;41.92;;;18.23;;
49860;SDS011;35761;48.826;9.238;2022-12-17T04:25:00;43.05;;;18.38;;
49860;SDS011;35761;48.826;9.238;2022-12-17T04:27:47;41.50;;;18.15;;
49860;SDS011;35761;48.826;9.238;2022-12-17T04:30:33;37.97;;;17.67;;
49860;SDS011;35761;48.826;9.238;2022-12-17T04:33:19;42.25;;;17.40;;
49860;SDS011;35761;48.826;9.238;2022-12-17T04:36:05;43.97;;;17.92;;
49860;SDS011;35761;48.826;9.238;2022-12-17T04:38:52;39.13;;;17.75;;
49860;SDS011;35761;48.826;9.238;2022-12-17T04:41:40;38.90;;;17.40;;
49860;SDS011;35761;48.826;9.238;2022-12-17T04:44:26;50.03;;;20.20;;
49860;SDS011;35761;48.826;9.238;2022-12-17T04:47:12;40.20;;;18.17;;
49860;SDS011;35761;48.826;9.238;2022-12-17T04:49:55;40.67;;;18.45;;
49860;SDS011;35761;48.826;9.238;2022-12-17T04:52:41;46.25;;;19.85;;
49860;SDS011;35761;48.826;9.238;2022-12-17T04:55:28;45.05;;;19.98;;
49860;SDS011;35761;48.826;9.238;2022-12-17T04:58:23;45.28;;;20.50;;
49860;SDS011;35761;48.826;9.238;2022-12-17T05:01:09;43.70;;;20.38;;
49860;SDS011;35761;48.826;9.238;2022-12-17T05:03:56;36.25;;;17.60;;
49860;SDS011;35761;48.826;9.238;2022-12-17T05:06:42;49.78;;;20.45;;
49860;SDS011;35761;48.826;9.238;2022-12-17T05:09:28;45.47;;;20.88;;
49860;SDS011;35761;48.826;9.238;2022-12-17T05:12:14;48.63;;;21.40;;
49860;SDS011;35761;48.826;9.238;2022-12-17T05:15:02;46.30;;;22.25;;
49860;SDS011;35761;48.826;9.238;2022-12-17T05:17:52;44.47;;;21.23;;
49860;SDS011;35761;48.826;9.238;2022-12-17T05:20:38;46.10;;;23.02;;
49860;SDS011;35761;48.826;9.238;2022-12-17T05:23:24;41.03;;;19.40;;
49860;SDS011;35761;48.826;9.238;2022-12-17T05:26:12;41.20;;;20.73;;
49860;SDS011;35761;48.826;9.238;2022-12-17T05:29:04;48.97;;;20.00;;
49860;SDS011;35761;48.826;9.238;2022-12-17T05:31:51;46.63;;;22.55;;
49860;SDS011;35761;48.826;9.238;2022-12-17T05:34:38;46.47;;;21.50;;
49860;SDS011;35761;48.826;9.238;2022-12-17T05:37:24;55.67;;;24.40;;
49860;SDS011;35761;48.826;9.238;2022-12-17T05:40:10;46.13;;;22.27;;
49860;SDS011;35761;48.826;9.238;2022-12-17T05:42:57;51.05;;;22.42;;
49860;SDS011;35761;48.826;9.238;2022-12-17T05:45:45;51.05;;;21.55;;
49860;SDS011;35761;48.826;9.238;2022-12-17T05:48:33;45.25;;;22.13;;
49860;SDS011;35761;48.826;9.238;2022-12-17T05:51:20;50.20;;;24.33;;
49860;SDS011;35761;48.826;9.238;2022-12-17T05:54:06;47.35;;;23.10;;
49860;SDS011;35761;48.826;9.238;2022-12-17T05:56:53;52.47;;;22.75;;
49860;SDS011;35761;48.826;9.238;2022-12-17T05:59:44;48.22;;;22.90;;
49860;SDS011;35761;48.826;9.238;2022-12-17T06:02:39;45.72;;;22.95;;
49860;SDS011;35761;48.826;9.238;2022-12-17T06:05:26;42.80;;;22.33;;
49860;SDS011;35761;48.826;9.238;2022-12-17T06:08:13;47.70;;;22.85;;
49860;SDS011;35761;48.826;9.238;2022-12-17T06:10:59;48.88;;;23.38;;
49860;SDS011;35761;48.826;9.238;2022-12-17T06:13:45;45.08;;;24.38;;
49860;SDS011;35761;48.826;9.238;2022-12-17T06:16:32;42.22;;;22.52;;
49860;SDS011;35761;48.826;9.238;2022-12-17T06:19:18;48.97;;;23.40;;
49860;SDS011;35761;48.826;9.238;2022-12-17T06:22:05;54.83;;;24.58;;
49860;SDS011;35761;48.826;9.238;2022-12-17T06:24:52;42.30;;;22.77;;
49860;SDS011;35761;48.826;9.238;2022-12-17T06:27:38;47.10;;;23.00;;
49860;SDS011;35761;48.826;9.238;2022-12-17T06:30:23;43.13;;;22.52;;
49860;SDS011;35761;48.826;9.238;2022-12-17T06:33:10;65.85;;;29.35;;
49860;SDS011;35761;48.826;9.238;2022-12-17T06:36:00;49.83;;;24.40;;
49860;SDS011;35761;48.826;9.238;2022-12-17T06:38:49;47.90;;;24.63;;
49860;SDS011;35761;48.826;9.238;2022-12-17T06:41:36;47.72;;;23.65;;
49860;SDS011;35761;48.826;9.238;2022-12-17T06:44:30;56.40;;;24.50;;
49860;SDS011;35761;48.826;9.238;2022-12-17T06:47:16;49.50;;;24.08;;
49860;SDS011;35761;48.826;9.238;2022-12-17T06:50:02;47.63;;;24.30;;
49860;SDS011;35761;48.826;9.238;2022-12-17T06:52:56;45.13;;;23.50;;
49860;SDS011;35761;48.826;9.238;2022-12-17T06:55:44;50.92;;;24.42;;
49860;SDS011;35761;48.826;9.238;2022-12-17T06:58:30;49.47;;;24.73;;
49860;SDS011;35761;48.826;9.238;2022-12-17T07:01:16;52.97;;;23.92;;
49860;SDS011;35761;48.826;9.238;2022-12-17T07:04:03;46.75;;;23.55;;
49860;SDS011;35761;48.826;9.238;2022-12-17T07:06:52;46.72;;;22.90;;
49860;SDS011;35761;48.826;9.238;2022-12-17T07:09:39;46.30;;;23.13;;
49860;SDS011;35761;48.826;9.238;2022-12-17T07:12:26;41.33;;;21.88;;
49860;SDS011;35761;48.826;9.238;2022-12-17T07:15:13;46.78;;;23.25;;
49860;SDS011;35761;48.826;9.238;2022-12-17T07:17:59;45.13;;;22.60;;
49860;SDS011;35761;48.826;9.238;2022-12-17T07:20:46;50.33;;;24.13;;
49860;SDS011;35761;48.826;9.238;2022-12-17T07:23:33;43.95;;;23.02;;
49860;SDS011;35761;48.826;9.238;2022-12-17T07:26:19;48.88;;;25.33;;
49860;SDS011;35761;48.826;9.238;2022-12-17T07:29:07;43.88;;;22.98;;
49860;SDS011;35761;48.826;9.238;2022-12-17T07:31:54;46.97;;;23.45;;
49860;SDS011;35761;48.826;9.238;2022-12-17T07:34:41;51.83;;;23.70;;
49860;SDS011;35761;48.826;9.238;2022-12-17T07:37:27;44.78;;;22.80;;
49860;SDS011;35761;48.826;9.238;2022-12-17T07:40:13;45.30;;;23.25;;
49860;SDS011;35761;48.826;9.238;2022-12-17T07:43:00;50.80;;;24.90;;
49860;SDS011;35761;48.826;9.238;2022-12-17T07:45:57;47.97;;;23.75;;
49860;SDS011;35761;48.826;9.238;2022-12-17T07:48:43;44.80;;;23.42;;
49860;SDS011;35761;48.826;9.238;2022-12-17T07:51:29;44.92;;;23.10;;
49860;SDS011;35761;48.826;9.238;2022-12-17T07:54:15;50.10;;;24.08;;
49860;SDS011;35761;48.826;9.238;2022-12-17T07:57:01;50.25;;;24.15;;
49860;SDS011;35761;48.826;9.238;2022-12-17T07:59:47;51.05;;;24.33;;
49860;SDS011;35761;48.826;9.238;2022-12-17T08:02:35;43.63;;;21.55;;
49860;SDS011;35761;48.826;9.238;2022-12-17T08:05:21;48.80;;;22.92;;
49860;SDS011;35761;48.826;9.238;2022-12-17T08:08:07;49.20;;;22.02;;
49860;SDS011;35761;48.826;9.238;2022-12-17T08:10:54;59.58;;;23.27;;
49860;SDS011;35761;48.826;9.238;2022-12-17T08:13:40;46.63;;;23.42;;
49860;SDS011;35761;48.826;9.238;2022-12-17T08:16:27;47.45;;;23.85;;
49860;SDS011;35761;48.826;9.238;2022-12-17T08:19:15;54.38;;;22.27;;
49860;SDS011;35761;48.826;9.238;2022-12-17T08:22:01;45.95;;;23.05;;
49860;SDS011;35761;48.826;9.238;2022-12-17T08:24:47;47.25;;;23.45;;
49860;SDS011;35761;48.826;9.238;2022-12-17T08:27:34;46.38;;;22.63;;
49860;SDS011;35761;48.826;9.238;2022-12-17T08:30:22;44.25;;;21.55;;
49860;SDS011;35761;48.826;9.238;2022-12-17T08:33:09;48.72;;;22.30;;
49860;SDS011;35761;48.826;9.238;2022-12-17T08:35:57;56.45;;;25.80;;
49860;SDS011;35761;48.826;9.238;2022-12-17T08:38:43;55.47;;;22.85;;
49860;SDS011;35761;48.826;9.238;2022-12-17T08:41:30;53.63;;;24.17;;
49860;SDS011;35761;48.826;9.238;2022-12-17T08:44:21;46.35;;;20.42;;
49860;SDS011;35761;48.826;9.238;2022-12-17T08:47:07;45.40;;;22.58;;
49860;SDS011;35761;48.826;9.238;2022-12-17T08:49:53;46.85;;;22.13;;
49860;SDS011;35761;48.826;9.238;2022-12-17T08:52:41;51.42;;;24.08;;
49860;SDS011;35761;48.826;9.238;2022-12-17T08:55:27;45.10;;;22.77;;
49860;SDS011;35761;48.826;9.238;2022-12-17T08:58:13;42.08;;;20.42;;
49860;SDS011;35761;48.826;9.238;2022-12-17T09:00:56;43.45;;;21.63;;
49860;SDS011;35761;48.826;9.238;2022-12-17T09:03:44;48.63;;;22.13;;
49860;SDS011;35761;48.826;9.238;2022-12-17T09:06:30;46.28;;;22.95;;
49860;SDS011;35761;48.826;9.238;2022-12-17T09:09:18;45.15;;;22.52;;
49860;SDS011;35761;48.826;9.238;2022-12-17T09:12:04;50.13;;;22.17;;
49860;SDS011;35761;48.826;9.238;2022-12-17T09:14:50;47.35;;;22.83;;
49860;SDS011;35761;48.826;9.238;2022-12-17T09:17:37;48.40;;;21.65;;
49860;SDS011;35761;48.826;9.238;2022-12-17T09:20:23;49.30;;;21.45;;
49860;SDS011;35761;48.826;9.238;2022-12-17T09:23:09;47.00;;;21.17;;
49860;SDS011;35761;48.826;9.238;2022-12-17T09:26:00;45.50;;;21.50;;
49860;SDS011;35761;48.826;9.238;2022-12-17T09:28:47;47.58;;;22.90;;
49860;SDS011;35761;48.826;9.238;2022-12-17T09:31:38;51.58;;;23.20;;
49860;SDS011;35761;48.826;9.238;2022-12-17T09:34:24;53.17;;;23.15;;
49860;SDS011;35761;48.826;9.238;2022-12-17T09:37:11;54.50;;;24.00;;
49860;SDS011;35761;48.826;9.238;2022-12-17T09:39:57;49.72;;;23.27;;
49860;SDS011;35761;48.826;9.238;2022-12-17T09:42:48;50.55;;;24.48;;
49860;SDS011;35761;48.826;9.238;2022-12-17T09:45:40;62.67;;;27.73;;
49860;SDS011;35761;48.826;9.238;2022-12-17T09:48:30;51.88;;;24.33;;
49860;SDS011;35761;48.826;9.238;2022-12-17T09:51:31;45.88;;;21.52;;
49860;SDS011;35761;48.826;9.238;2022-12-17T09:54:20;48.72;;;23.30;;
49860;SDS011;35761;48.826;9.238;2022-12-17T09:57:11;52.55;;;22.70;;
49860;SDS011;35761;48.826;9.238;2022-12-17T09:59:57;44.75;;;22.13;;
49860;SDS011;35761;48.826;9.238;2022-12-17T10:02:43;47.67;;;23.33;;
49860;SDS011;35761;48.826;9.238;2022-12-17T10:05:30;45.90;;;21.83;;
49860;SDS011;35761;48.826;9.238;2022-12-17T10:08:18;52.05;;;22.52;;
49860;SDS011;35761;48.826;9.238;2022-12-17T10:11:09;45.28;;;22.42;;
49860;SDS011;35761;48.826;9.238;2022-12-17T10:14:00;52.45;;;21.20;;
49860;SDS011;35761;48.826;9.238;2022-12-17T10:16:49;46.33;;;22.92;;
49860;SDS011;35761;48.826;9.238;2022-12-17T10:19:38;55.10;;;24.92;;
49860;SDS011;35761;48.826;9.238;2022-12-17T10:22:25;59.30;;;27.50;;
49860;SDS011;35761;48.826;9.238;2022-12-17T10:25:13;49.03;;;24.13;;
49860;SDS011;35761;48.826;9.238;2022-12-17T10:28:03;45.72;;;22.80;;
49860;SDS011;35761;48.826;9.238;2022-12-17T10:30:51;49.92;;;24.08;;
49860;SDS011;35761;48.826;9.238;2022-12-17T10:33:39;53.40;;;23.20;;
49860;SDS011;35761;48.826;9.238;2022-12-17T10:36:28;48.85;;;22.42;;
49860;SDS011;35761;48.826;9.238;2022-12-17T10:39:15;51.33;;;23.85;;
49860;SDS011;35761;48.826;9.238;2022-12-17T10:42:16;50.85;;;24.98;;
49860;SDS011;35761;48.826;9.238;2022-12-17T10:45:20;46.85;;;24.33;;
49860;SDS011;35761;48.826;9.238;2022-12-17T10:48:15;51.50;;;23.23;;
49860;SDS011;35761;48.826;9.238;2022-12-17T10:51:04;49.08;;;23.50;;
49860;SDS011;35761;48.826;9.238;2022-12-17T10:53:58;49.85;;;23.10;;
49860;SDS011;35761;48.826;9.238;2022-12-17T10:56:54;46.72;;;23.10;;
49860;SDS011;35761;48.826;9.238;2022-12-17T10:59:42;48.22;;;24.15;;
49860;SDS011;35761;48.826;9.238;2022-12-17T11:02:29;49.38;;;25.70;;
49860;SDS011;35761;48.826;9.238;2022-12-17T11:05:19;52.60;;;23.77;;
49860;SDS011;35761;48.826;9.238;2022-12-17T11:08:11;50.67;;;24.48;;
49860;SDS011;35761;48.826;9.238;2022-12-17T11:10:58;48.28;;;23.75;;
49860;SDS011;35761;48.826;9.238;2022-12-17T11:13:51;50.00;;;23.60;;
49860;SDS011;35761;48.826;9.238;2022-12-17T11:16:39;48.05;;;24.98;;
49860;SDS011;35761;48.826;9.238;2022-12-17T11:19:30;46.70;;;25.23;;
49860;SDS011;35761;48.826;9.238;2022-12-17T11:22:22;57.33;;;26.15;;
49860;SDS011;35761;48.826;9.238;2022-12-17T11:25:21;49.78;;;25.52;;
49860;SDS011;35761;48.826;9.238;2022-12-17T11:28:19;50.97;;;25.60;;
49860;SDS011;35761;48.826;9.238;2022-12-17T11:31:17;51.38;;;26.33;;
49860;SDS011;35761;48.826;9.238;2022-12-17T11:37:13;49.40;;;24.70;;
49860;SDS011;35761;48.826;9.238;2022-12-17T11:40:03;47.63;;;24.88;;
49860;SDS011;35761;48.826;9.238;2022-12-17T11:43:00;49.17;;;24.52;;
49860;SDS011;35761;48.826;9.238;2022-12-17T11:45:53;51.97;;;25.30;;
49860;SDS011;35761;48.826;9.238;2022-12-17T11:48:53;48.33;;;24.50;;
49860;SDS011;35761;48.826;9.238;2022-12-17T11:51:42;49.22;;;25.48;;
49860;SDS011;35761;48.826;9.238;2022-12-17T11:54:34;44.70;;;24.13;;
49860;SDS011;35761;48.826;9.238;2022-12-17T11:57:25;51.17;;;26.02;;
49860;SDS011;35761;48.826;9.238;2022-12-17T12:00:16;58.55;;;26.17;;
49860;SDS011;35761;48.826;9.238;2022-12-17T12:03:06;51.55;;;25.67;;
49860;SDS011;35761;48.826;9.238;2022-12-17T12:06:07;53.88;;;26.20;;
49860;SDS011;35761;48.826;9.238;2022-12-17T12:09:00;54.25;;;26.85;;
49860;SDS011;35761;48.826;9.238;2022-12-17T12:11:53;53.55;;;27.52;;
49860;SDS011;35761;48.826;9.238;2022-12-17T12:14:43;60.10;;;27.05;;
49860;SDS011;35761;48.826;9.238;2022-12-17T12:17:40;49.75;;;27.25;;
49860;SDS011;35761;48.826;9.238;2022-12-17T12:20:34;48.15;;;25.63;;
49860;SDS011;35761;48.826;9.238;2022-12-17T12:23:39;50.72;;;25.45;;
49860;SDS011;35761;48.826;9.238;2022-12-17T12:26:29;48.55;;;27.00;;
49860;SDS011;35761;48.826;9.238;2022-12-17T12:29:20;49.10;;;26.00;;
49860;SDS011;35761;48.826;9.238;2022-12-17T12:32:12;55.25;;;28.48;;
49860;SDS011;35761;48.826;9.238;2022-12-17T12:35:03;53.72;;;26.52;;
49860;SDS011;35761;48.826;9.238;2022-12-17T12:37:50;57.92;;;26.20;;
49860;SDS011;35761;48.826;9.238;2022-12-17T12:40:37;49.65;;;27.33;;
49860;SDS011;35761;48.826;9.238;2022-12-17T12:43:28;49.75;;;26.27;;
49860;SDS011;35761;48.826;9.238;2022-12-17T12:46:18;53.58;;;26.40;;
49860;SDS011;35761;48.826;9.238;2022-12-17T12:49:12;60.30;;;27.30;;
49860;SDS011;35761;48.826;9.238;2022-12-17T12:52:04;53.15;;;26.15;;
49860;SDS011;35761;48.826;9.238;2022-12-17T12:54:52;54.42;;;28.10;;
49860;SDS011;35761;48.826;9.238;2022-12-17T12:57:40;62.28;;;32.08;;
49860;SDS011;35761;48.826;9.238;2022-12-17T13:00:28;55.90;;;28.42;;
49860;SDS011;35761;48.826;9.238;2022-12-17T13:03:21;53.28;;;27.10;;
49860;SDS011;35761;48.826;9.238;2022-12-17T13:06:13;53.88;;;27.02;;
49860;SDS011;35761;48.826;9.238;2022-12-17T13:09:05;54.35;;;25.90;;
49860;SDS011;35761;48.826;9.238;2022-12-17T13:11:46;52.28;;;26.45;;
49860;SDS011;35761;48.826;9.238;2022-12-17T13:14:17;52.80;;;28.17;;
49860;SDS011;35761;48.826;9.238;2022-12-17T13:16:50;53.08;;;27.23;;
49860;SDS011;35761;48.826;9.238;2022-12-17T13:19:31;52.95;;;27.20;;
49860;SDS011;35761;48.826;9.238;2022-12-17T13:22:09;56.22;;;27.90;;
49860;SDS011;35761;48.826;9.238;2022-12-17T13:24:52;53.22;;;26.65;;
49860;SDS011;35761;48.826;9.238;2022-12-17T13:27:28;50.25;;;26.52;;
49860;SDS011;35761;48.826;9.238;2022-12-17T13:29:58;52.25;;;28.90;;
49860;SDS011;35761;48.826;9.238;2022-12-17T13:32:47;50.00;;;26.30;;
49860;SDS011;35761;48.826;9.238;2022-12-17T13:35:23;46.30;;;24.87;;
49860;SDS011;35761;48.826;9.238;2022-12-17T13:38:08;53.42;;;26.65;;
49860;SDS011;35761;48.826;9.238;2022-12-17T13:40:44;50.50;;;25.20;;
49860;SDS011;35761;48.826;9.238;2022-12-17T13:43:16;49.30;;;25.33;;
49860;SDS011;35761;48.826;9.238;2022-12-17T13:45:46;45.92;;;25.77;;
49860;SDS011;35761;48.826;9.238;2022-12-17T13:48:17;50.80;;;27.50;;
49860;SDS011;35761;48.826;9.238;2022-12-17T13:50:52;50.45;;;27.02;;
49860;SDS011;35761;48.826;9.238;2022-12-17T13:53:21;51.13;;;28.15;;
49860;SDS011;35761;48.826;9.238;2022-12-17T13:55:52;53.30;;;28.20;;
49860;SDS011;35761;48.826;9.238;2022-12-17T13:58:23;44.10;;;25.33;;
49860;SDS011;35761;48.826;9.238;2022-12-17T14:01:02;45.97;;;26.92;;
49860;SDS011;35761;48.826;9.238;2022-12-17T14:03:32;47.30;;;26.15;;
49860;SDS011;35761;48.826;9.238;2022-12-17T14:06:21;52.58;;;27.05;;
49860;SDS011;35761;48.826;9.238;2022-12-17T14:08:52;47.58;;;26.13;;
49860;SDS011;35761;48.826;9.238;2022-12-17T14:11:24;55.75;;;34.53;;
49860;SDS011;35761;48.826;9.238;2022-12-17T14:14:11;54.30;;;28.27;;
49860;SDS011;35761;48.826;9.238;2022-12-17T14:16:45;42.65;;;26.15;;
49860;SDS011;35761;48.826;9.238;2022-12-17T14:19:17;46.35;;;26.48;;
49860;SDS011;35761;48.826;9.238;2022-12-17T14:21:46;47.83;;;27.25;;
49860;SDS011;35761;48.826;9.238;2022-12-17T14:24:22;51.33;;;29.17;;
49860;SDS011;35761;48.826;9.238;2022-12-17T14:26:57;50.78;;;27.33;;
49860;SDS011;35761;48.826;9.238;2022-12-17T14:29:27;47.40;;;27.85;;
49860;SDS011;35761;48.826;9.238;2022-12-17T14:31:58;49.65;;;28.70;;
49860;SDS011;35761;48.826;9.238;2022-12-17T14:34:28;53.22;;;28.85;;
49860;SDS011;35761;48.826;9.238;2022-12-17T14:37:12;45.42;;;26.55;;
49860;SDS011;35761;48.826;9.238;2022-12-17T14:39:43;55.30;;;31.77;;
49860;SDS011;35761;48.826;9.238;2022-12-17T14:42:15;53.10;;;28.73;;
49860;SDS011;35761;48.826;9.238;2022-12-17T14:44:56;53.00;;;29.80;;
49860;SDS011;35761;48.826;9.238;2022-12-17T14:47:27;51.00;;;29.00;;
49860;SDS011;35761;48.826;9.238;2022-12-17T14:49:58;51.60;;;28.70;;
49860;SDS011;35761;48.826;9.238;2022-12-17T14:52:35;49.45;;;28.30;;
49860;SDS011;35761;48.826;9.238;2022-12-17T14:55:25;51.38;;;28.83;;
49860;SDS011;35761;48.826;9.238;2022-12-17T14:58:08;57.88;;;29.33;;
49860;SDS011;35761;48.826;9.238;2022-12-17T15:00:43;55.90;;;29.35;;
49860;SDS011;35761;48.826;9.238;2022-12-17T15:03:18;71.47;;;38.50;;
49860;SDS011;35761;48.826;9.238;2022-12-17T15:05:50;58.10;;;30.13;;
49860;SDS011;35761;48.826;9.238;2022-12-17T15:08:20;56.03;;;29.20;;
49860;SDS011;35761;48.826;9.238;2022-12-17T15:10:49;49.72;;;29.55;;
49860;SDS011;35761;48.826;9.238;2022-12-17T15:13:19;55.72;;;30.23;;
49860;SDS011;35761;48.826;9.238;2022-12-17T15:15:48;57.75;;;28.75;;
49860;SDS011;35761;48.826;9.238;2022-12-17T15:18:17;56.55;;;29.98;;
49860;SDS011;35761;48.826;9.238;2022-12-17T15:20:46;58.90;;;31.77;;
49860;SDS011;35761;48.826;9.238;2022-12-17T15:23:15;57.22;;;30.15;;
49860;SDS011;35761;48.826;9.238;2022-12-17T15:25:45;72.07;;;36.67;;
49860;SDS011;35761;48.826;9.238;2022-12-17T15:28:14;74.70;;;38.80;;
49860;SDS011;35761;48.826;9.238;2022-12-17T15:30:46;64.05;;;30.48;;
49860;SDS011;35761;48.826;9.238;2022-12-17T15:33:16;56.50;;;29.40;;
49860;SDS011;35761;48.826;9.238;2022-12-17T15:35:45;62.13;;;29.90;;
49860;SDS011;35761;48.826;9.238;2022-12-17T15:38:14;59.72;;;30.15;;
49860;SDS011;35761;48.826;9.238;2022-12-17T15:40:43;60.30;;;31.27;;
49860;SDS011;35761;48.826;9.238;2022-12-17T15:43:12;56.58;;;30.05;;
49860;SDS011;35761;48.826;9.238;2022-12-17T15:45:41;59.28;;;29.10;;
49860;SDS011;35761;48.826;9.238;2022-12-17T15:48:13;61.65;;;29.63;;
49860;SDS011;35761;48.826;9.238;2022-12-17T15:50:42;64.85;;;32.92;;
49860;SDS011;35761;48.826;9.238;2022-12-17T15:53:11;61.72;;;31.55;;
49860;SDS011;35761;48.826;9.238;2022-12-17T15:55:40;57.42;;;30.13;;
49860;SDS011;35761;48.826;9.238;2022-12-17T15:58:09;64.32;;;33.50;;
49860;SDS011;35761;48.826;9.238;2022-12-17T16:00:37;57.75;;;30.20;;
49860;SDS011;35761;48.826;9.238;2022-12-17T16:03:06;70.35;;;33.58;;
49860;SDS011;35761;48.826;9.238;2022-12-17T16:05:36;62.60;;;30.58;;
49860;SDS011;35761;48.826;9.238;2022-12-17T16:08:05;65.63;;;31.65;;
49860;SDS011;35761;48.826;9.238;2022-12-17T16:10:34;61.97;;;30.15;;
49860;SDS011;35761;48.826;9.238;2022-12-17T16:13:04;60.08;;;30.95;;